Goober Hill, Texas
Current Conditions -  °F | °C
As of 12:15 PM on Monday 22 Dec 2014 (Local Time) from KOCH Reporting Station
Overcast Overcast  
Wind Chill: 66°   Ceiling: 3000
Heat Index: 66°   Visibility: 10mi
Dew Point: 57°   Wind: 13mph
Humidity: 73%   Direction: 230°SW
Pressure: 29.63"   Gusts: 18mph
Location:  31.7022°N, 93.9592°W
Report Text: KOCH 221815Z AUTO 23011G16KT 10SM SCT021 BKN030 OVC036 19/14 A2963 RMK AO1
Loading
Personal Weather Stations






























Interactive Weather Map New forecast layout! Learn more

10-Day Weather Forecast

Advertisements
Track Severe Weather on mobile